Time;durP1;ratioP1;P1;durP2;ratioP2;P2;SDS_P1;SDS_P2;PMS_P1;PMS_P2;Temp;Humidity;BMP_temperature;BMP_pressure;BME280_temperature;BME280_humidity;BME280_pressure;Samples;Min_cycle;Max_cycle;Signal;HPM_P1;HPM_P2
2022/01/31 00:02:07;;;;;;;31.73;7.47;;;;;;;-146.64;100.00;40453.34;5071741;28;20082;-74
2022/01/31 00:04:32;;;;;;;29.65;6.28;;;;;;;-146.64;100.00;40549.56;5071829;28;20024;-74
2022/01/31 00:06:57;;;;;;;23.60;5.95;;;;;;;-146.64;100.00;40787.06;5071387;28;20037;-74
2022/01/31 00:09:24;;;;;;;37.67;7.15;;;;;;;-146.64;100.00;40897.63;5037120;28;20033;-74
2022/01/31 00:12:04;;;;;;;40.92;7.75;;;;;;;-146.64;100.00;41073.69;5037239;28;20025;-74
2022/01/31 00:14:34;;;;;;;41.95;8.35;;;;;;;-146.64;100.00;41372.66;5062556;28;20044;-75
2022/01/31 00:17:00;;;;;;;43.55;7.93;;;;;;;-146.64;100.00;41765.81;5054655;28;20428;-74
2022/01/31 00:19:25;;;;;;;31.05;6.85;;;;;;;-146.64;100.00;41970.59;5071478;28;20021;-74
2022/01/31 00:21:51;;;;;;;33.20;8.55;;;;;;;-146.64;100.00;42195.91;5030226;28;20551;-73
2022/01/31 00:24:16;;;;;;;35.28;8.07;;;;;;;-146.64;100.00;42134.44;5052240;28;20036;-74
2022/01/31 00:26:42;;;;;;;38.78;8.30;;;;;;;-146.64;100.00;42150.84;5052543;28;20376;-74
2022/01/31 00:29:07;;;;;;;32.55;8.13;;;;;;;-146.64;100.00;42447.81;5053184;28;20037;-74
2022/01/31 00:31:32;;;;;;;29.70;7.32;;;;;;;-146.64;100.00;42679.28;5068400;28;20399;-74
2022/01/31 00:33:58;;;;;;;36.72;8.27;;;;;;;-146.64;100.00;43179.09;5067887;28;20425;-74
2022/01/31 00:36:23;;;;;;;28.88;8.20;;;;;;;-146.64;100.00;44135.91;5026305;28;20024;-74
2022/01/31 00:38:48;;;;;;;23.48;8.00;;;;;;;-146.64;100.00;44027.31;5051604;28;20027;-74
2022/01/31 00:41:14;;;;;;;34.50;8.00;;;;;;;-146.64;100.00;44207.63;5067552;28;20028;-74
2022/01/31 00:43:39;;;;;;;35.00;7.55;;;;;;;-146.64;100.00;44842.94;5053487;28;20477;-73
2022/01/31 00:46:12;;;;;;;35.10;7.03;;;;;;;-146.64;100.00;44920.81;5035673;28;20077;-74
2022/01/31 00:48:45;;;;;;;35.03;8.18;;;;;;;-146.64;100.00;45841.16;5046610;28;20067;-75
2022/01/31 00:51:11;;;;;;;31.60;7.32;;;;;;;-146.64;100.00;47497.88;5048481;28;20047;-74
2022/01/31 00:53:36;;;;;;;30.15;7.47;;;;;;;-146.64;100.00;49924.78;5034551;28;20029;-74
2022/01/31 00:56:02;;;;;;;40.28;6.97;;;;;;;-146.64;100.00;52989.78;5052381;28;20373;-74
2022/01/31 00:58:27;;;;;;;23.02;7.40;;;;;;;-146.64;100.00;56620.34;5052976;28;20024;-74
2022/01/31 01:00:53;;;;;;;34.40;7.65;;;;;;;-146.64;100.00;60305.66;5070679;28;20027;-73
2022/01/31 01:03:18;;;;;;;39.50;8.10;;;;;;;-146.64;100.00;63730.81;5036416;28;20020;-74
2022/01/31 01:05:44;;;;;;;34.50;8.43;;;;;;;-146.64;100.00;66895.09;5068837;28;20118;-74
2022/01/31 01:08:09;;;;;;;30.08;7.75;;;;;;;-146.64;100.00;69269.97;5070639;28;20037;-74
2022/01/31 01:10:34;;;;;;;33.13;7.47;;;;;;;-146.64;100.00;71382.16;5051139;28;20491;-74
2022/01/31 01:13:00;;;;;;;36.13;8.20;;;;;;;-146.64;100.00;72702.84;5035535;28;20032;-74
2022/01/31 01:15:25;;;;;;;35.75;7.55;;;;;;;-146.64;100.00;74552.53;5026401;28;20082;-75
2022/01/31 01:17:52;;;;;;;29.35;8.73;;;;;;;-146.64;100.00;76403.06;5036275;28;20020;-74
2022/01/31 01:20:17;;;;;;;29.33;6.30;;;;;;;-146.64;100.00;77460.91;5051730;28;20029;-75
2022/01/31 01:22:44;;;;;;;29.48;6.53;;;;;;;-146.64;100.00;78254.47;5033250;28;20055;-75
2022/01/31 01:25:12;;;;;;;34.22;7.43;;;;;;;-146.64;100.00;79048.19;5050120;28;20448;-75
2022/01/31 01:27:38;;;;;;;30.00;6.70;;;;;;;-146.64;100.00;80371.41;5068884;28;20040;-74
2022/01/31 01:30:04;;;;;;;26.20;6.90;;;;;;;-146.64;100.00;80636.09;5070316;28;20472;-74
2022/01/31 01:32:34;;;;;;;37.42;7.35;;;;;;;-146.64;100.00;82224.63;5068638;28;20074;-74
2022/01/31 01:35:03;;;;;;;30.52;7.45;;;;;;;-146.64;100.00;83019.13;5058004;28;20563;-74
2022/01/31 01:37:29;;;;;;;28.90;7.10;;;;;;;-146.64;100.00;84078.72;5050263;28;20531;-74
2022/01/31 01:39:54;;;;;;;27.90;7.30;;;;;;;-146.64;100.00;85403.56;5051773;28;20103;-74
2022/01/31 01:42:19;;;;;;;35.88;8.65;;;;;;;-146.64;100.00;86198.72;5032549;28;20385;-74
2022/01/31 01:44:47;;;;;;;19.15;6.80;;;;;;;-146.64;100.00;86463.78;5063214;28;20413;-75
2022/01/31 01:47:22;;;;;;;23.73;6.93;;;;;;;-146.64;100.00;86994.00;5042606;28;20392;-74
2022/01/31 01:49:48;;;;;;;23.58;7.88;;;;;;;-146.64;100.00;87259.13;5068806;28;20031;-75
2022/01/31 01:52:15;;;;;;;18.17;5.82;;;;;;;-146.64;100.00;88585.03;5051770;28;20036;-75
2022/01/31 01:54:42;;;;;;;21.70;5.88;;;;;;;-146.64;100.00;89380.81;5040365;28;20111;-74
2022/01/31 01:57:07;;;;;;;16.08;6.40;;;;;;;-146.64;100.00;89911.41;5029154;28;20045;-74
2022/01/31 01:59:35;;;;;;;18.92;6.38;;;;;;;-146.64;100.00;90972.78;5064581;28;20032;-73
2022/01/31 02:02:01;;;;;;;15.98;5.95;;;;;;;-146.64;100.00;91769.03;5055802;28;20025;-74
2022/01/31 02:04:27;;;;;;;23.23;5.90;;;;;;;-146.64;100.00;92034.47;5055339;28;20400;-74
2022/01/31 02:06:53;;;;;;;21.00;5.40;;;;;;;-146.64;100.00;92830.91;5068410;28;20477;-75
2022/01/31 02:09:22;;;;;;;23.80;5.97;;;;;;;-146.64;100.00;93096.44;5053648;28;20040;-74
2022/01/31 02:11:47;;;;;;;22.70;5.28;;;;;;;-146.64;100.00;93893.06;5036052;28;20459;-75
2022/01/31 02:14:12;;;;;;;29.95;5.80;;;;;;;-146.64;100.00;93893.06;5046850;28;20052;-74
2022/01/31 02:16:38;;;;;;;21.55;5.15;;;;;;;-146.64;100.00;93893.06;5054733;28;20388;-76
2022/01/31 02:19:03;;;;;;;20.50;5.35;;;;;;;-146.64;100.00;94158.66;5056072;28;20028;-75
2022/01/31 02:21:28;;;;;;;22.65;5.15;;;;;;;-146.64;100.00;94424.25;5039377;28;20173;-75
2022/01/31 02:23:54;;;;;;;25.17;4.53;;;;;;;-146.64;100.00;94424.25;5034433;28;20098;-74
2022/01/31 02:26:19;;;;;;;36.13;7.43;;;;;;;-146.64;100.00;94424.25;5052592;28;20016;-74
2022/01/31 02:28:45;;;;;;;39.92;6.15;;;;;;;-146.64;100.00;94424.25;5060096;28;20032;-74
2022/01/31 02:31:11;;;;;;;27.13;6.65;;;;;;;-146.64;100.00;94158.66;5062369;28;20012;-74
2022/01/31 02:33:36;;;;;;;35.00;5.05;;;;;;;-146.64;100.00;94158.66;5055749;28;20031;-75
2022/01/31 02:36:04;;;;;;;43.67;7.13;;;;;;;-146.64;100.00;90972.78;5045951;28;20020;-75
2022/01/31 02:38:30;;;;;;;36.30;5.55;;;;;;;-146.64;100.00;88850.28;5049931;28;20024;-76
2022/01/31 02:40:56;;;;;;;35.33;5.25;;;;;;;-146.64;100.00;84873.56;5059282;28;20027;-75
2022/01/31 02:43:32;;;;;;;40.35;5.60;;;;;;;-146.64;100.00;79048.19;5038804;28;20032;-75
2022/01/31 02:45:59;;;;;;;30.07;4.87;;;;;;;-146.64;100.00;73495.47;5046080;28;20037;-75
2022/01/31 02:48:26;;;;;;;33.50;4.38;;;;;;;-146.64;100.00;66895.09;5077757;28;20433;-75
2022/01/31 02:50:52;;;;;;;30.55;4.32;;;;;;;-146.64;100.00;63467.22;5083636;28;20034;-75
2022/01/31 02:55:48;;;;;;;39.92;4.43;;;;;;;-146.64;100.00;55305.00;5061280;28;20036;-75
2022/01/31 02:58:14;;;;;;;29.08;4.07;;;;;;;-146.64;100.00;50142.31;5046464;28;20052;-76
2022/01/31 03:00:40;;;;;;;21.70;3.75;;;;;;;-146.64;100.00;48386.00;5057056;28;20043;-75
2022/01/31 03:03:05;;;;;;;22.98;3.78;;;;;;;-146.64;100.00;49044.53;5042971;28;20025;-75
2022/01/31 03:05:31;;;;;;;27.75;4.22;;;;;;;-146.64;100.00;48082.44;5034255;28;20029;-75
2022/01/31 03:07:56;;;;;;;18.85;4.38;;;;;;;-146.64;100.00;43494.59;5051151;28;20029;-75
2022/01/31 03:10:22;;;;;;;25.92;4.72;;;;;;;-146.64;100.00;43416.75;5046491;28;20028;-75
2022/01/31 03:12:47;;;;;;;23.23;3.67;;;;;;;-146.64;100.00;43941.25;5046840;28;20051;-76
2022/01/31 03:15:12;;;;;;;21.48;4.13;;;;;;;-146.64;100.00;42982.44;5051704;28;20029;-75
2022/01/31 03:17:40;;;;;;;31.80;4.75;;;;;;;-146.64;100.00;41606.09;5034952;28;20028;-75
2022/01/31 03:20:06;;;;;;;25.67;4.13;;;;;;;-146.64;100.00;41425.88;5023480;28;20056;-76
2022/01/31 03:22:32;;;;;;;20.70;3.78;;;;;;;-146.64;100.00;41204.75;5031583;28;20114;-75
2022/01/31 03:24:57;;;;;;;18.70;3.28;;;;;;;-146.64;100.00;40922.19;5050333;28;20102;-75
2022/01/31 03:27:23;;;;;;;24.92;4.05;;;;;;;-146.64;100.00;40926.28;5052986;28;20032;-76
2022/01/31 03:29:48;;;;;;;32.35;3.72;;;;;;;-146.64;100.00;40756.34;5050692;28;20021;-76
2022/01/31 03:32:13;;;;;;;14.98;2.92;;;;;;;-146.64;100.00;40742.00;5059225;28;20024;-75
2022/01/31 03:34:39;;;;;;;18.98;2.80;;;;;;;-146.64;100.00;40782.97;5052790;28;20044;-75
2022/01/31 03:37:04;;;;;;;26.88;4.55;;;;;;;-146.64;100.00;40619.19;5049555;28;20495;-75
2022/01/31 03:39:29;;;;;;;19.70;3.25;;;;;;;-146.64;100.00;40651.94;5049737;28;20059;-75
2022/01/31 03:41:55;;;;;;;18.38;3.08;;;;;;;-146.64;100.00;40471.78;5048070;28;20032;-75
2022/01/31 03:44:20;;;;;;;23.38;3.22;;;;;;;-146.64;100.00;40484.06;5025084;28;20030;-75
2022/01/31 03:46:45;;;;;;;22.98;3.80;;;;;;;-146.64;100.00;40502.47;5053598;28;20045;-75
2022/01/31 03:49:11;;;;;;;28.98;4.13;;;;;;;-146.64;100.00;40295.72;5043689;28;20469;-74
2022/01/31 03:51:36;;;;;;;22.27;3.60;;;;;;;-146.64;100.00;40348.94;5040334;28;20083;-75
2022/01/31 03:54:03;;;;;;;25.80;3.80;;;;;;;-146.64;100.00;40324.38;5048876;28;20029;-76
2022/01/31 03:56:28;;;;;;;29.15;3.78;;;;;;;-146.64;100.00;40283.44;5050029;28;20463;-75
2022/01/31 03:58:54;;;;;;;22.92;3.78;;;;;;;-146.64;100.00;40295.72;5050965;28;20075;-75
2022/01/31 04:01:19;;;;;;;21.20;3.60;;;;;;;-146.64;100.00;40254.78;5048294;28;20056;-75
2022/01/31 04:03:44;;;;;;;26.10;3.53;;;;;;;-146.64;100.00;40217.94;5050456;28;20021;-75
2022/01/31 04:06:11;;;;;;;32.40;5.35;;;;;;;-146.64;100.00;40285.47;5049884;28;20410;-75
2022/01/31 04:08:36;;;;;;;30.30;3.50;;;;;;;-146.64;100.00;40265.00;5045866;28;20032;-75
2022/01/31 04:11:01;;;;;;;24.08;3.97;;;;;;;-146.64;100.00;40123.75;5042994;28;20041;-75
2022/01/31 04:13:28;;;;;;;23.13;3.17;;;;;;;-146.64;100.00;40117.63;5051202;28;20025;-75
2022/01/31 04:15:53;;;;;;;18.42;3.10;;;;;;;-146.64;100.00;40156.50;5051465;28;20028;-75
2022/01/31 04:18:21;;;;;;;28.40;3.92;;;;;;;-146.64;100.00;40123.75;5033563;28;20435;-76
2022/01/31 04:20:46;;;;;;;23.70;3.25;;;;;;;-146.64;100.00;40129.91;5049359;28;20025;-76
2022/01/31 04:23:15;;;;;;;15.93;2.58;;;;;;;-146.64;100.00;39966.16;5050169;28;20029;-75
2022/01/31 04:28:22;;;;;;;13.32;2.75;;;;;;;-146.64;100.00;39947.72;5051045;28;20506;-75
2022/01/31 04:30:55;;;;;;;17.98;3.17;;;;;;;-146.64;100.00;39947.72;5049700;28;20029;-76
2022/01/31 04:33:21;;;;;;;18.67;3.03;;;;;;;-146.64;100.00;39914.97;5048294;28;20025;-75
2022/01/31 04:35:47;;;;;;;28.85;3.42;;;;;;;-146.64;100.00;39874.03;5037636;28;20049;-76
2022/01/31 04:38:12;;;;;;;18.13;3.38;;;;;;;-146.64;100.00;39878.13;5039584;28;20492;-75
2022/01/31 04:40:38;;;;;;;22.23;2.92;;;;;;;-146.64;100.00;39951.81;5044176;28;20033;-74
2022/01/31 04:43:03;;;;;;;19.30;3.88;;;;;;;-146.64;100.00;39878.13;5066241;28;20037;-73
2022/01/31 04:45:29;;;;;;;20.73;3.97;;;;;;;-146.64;100.00;39826.97;5049748;28;20082;-73
2022/01/31 04:47:54;;;;;;;19.17;3.13;;;;;;;-146.64;100.00;39810.59;5050050;28;20017;-73
2022/01/31 04:50:20;;;;;;;16.00;2.65;;;;;;;-146.64;100.00;39831.06;5029306;28;20538;-74
2022/01/31 04:52:45;;;;;;;18.33;2.88;;;;;;;-146.64;100.00;39841.28;5041089;28;20035;-73
2022/01/31 04:55:11;;;;;;;29.55;3.35;;;;;;;-146.64;100.00;39863.81;5031978;28;20064;-73
2022/01/31 04:57:36;;;;;;;21.63;3.97;;;;;;;-146.64;100.00;39876.09;5048412;28;20075;-74
2022/01/31 05:00:05;;;;;;;18.75;3.35;;;;;;;-146.64;100.00;39851.53;5048892;28;20061;-74
2022/01/31 05:02:31;;;;;;;26.00;3.63;;;;;;;-146.64;100.00;39812.63;5049709;28;20032;-74
2022/01/31 05:04:56;;;;;;;25.67;4.28;;;;;;;-146.64;100.00;39874.03;5045064;28;20022;-74
2022/01/31 05:07:21;;;;;;;13.43;2.90;;;;;;;-146.64;100.00;39808.53;5050129;28;20071;-74
2022/01/31 05:09:47;;;;;;;22.25;3.88;;;;;;;-146.64;100.00;39865.84;5049484;28;20035;-74
2022/01/31 05:12:13;;;;;;;20.02;3.20;;;;;;;-146.64;100.00;39890.41;5066033;28;20037;-74
2022/01/31 05:14:38;;;;;;;17.73;3.10;;;;;;;-146.64;100.00;39894.50;5048832;28;20044;-74
2022/01/31 05:17:03;;;;;;;14.68;2.92;;;;;;;-146.64;100.00;39910.88;5049344;28;20025;-74
2022/01/31 05:19:28;;;;;;;24.90;3.17;;;;;;;-146.64;100.00;39919.06;5047791;28;20025;-73
2022/01/31 05:21:54;;;;;;;27.08;3.63;;;;;;;-146.64;100.00;39988.66;5050143;28;20025;-74
2022/01/31 05:24:19;;;;;;;26.55;3.67;;;;;;;-146.64;100.00;40019.38;5038383;28;20032;-74
2022/01/31 05:26:50;;;;;;;18.42;3.42;;;;;;;-146.64;100.00;40025.50;5021667;28;20029;-73
2022/01/31 05:29:15;;;;;;;21.58;3.60;;;;;;;-146.64;100.00;40045.97;5057254;28;20108;-73
2022/01/31 05:31:41;;;;;;;23.88;4.05;;;;;;;-146.64;100.00;39972.28;5048672;28;20168;-74
2022/01/31 05:34:06;;;;;;;16.33;3.08;;;;;;;-146.64;100.00;39980.47;5050275;28;20036;-74
2022/01/31 05:36:32;;;;;;;24.85;3.80;;;;;;;-146.64;100.00;39955.91;5051460;28;20033;-74
2022/01/31 05:38:57;;;;;;;24.08;3.30;;;;;;;-146.64;100.00;39964.09;5046757;28;20025;-74
2022/01/31 05:41:23;;;;;;;20.27;3.67;;;;;;;-146.64;100.00;39951.81;5050912;28;20031;-74
2022/01/31 05:43:48;;;;;;;27.92;3.95;;;;;;;-146.64;100.00;39925.22;5025846;28;20416;-74
2022/01/31 05:46:13;;;;;;;33.45;4.65;;;;;;;-146.64;100.00;39976.38;5042842;28;20489;-74
2022/01/31 05:48:39;;;;;;;31.27;4.38;;;;;;;-146.64;100.00;40021.41;5048750;28;20029;-75
2022/01/31 05:51:10;;;;;;;29.55;3.95;;;;;;;-146.64;100.00;40091.00;5036040;28;20025;-74
2022/01/31 05:53:36;;;;;;;28.90;3.80;;;;;;;-146.64;100.00;40172.91;5051628;28;20025;-74
2022/01/31 05:56:02;;;;;;;26.85;3.78;;;;;;;-146.64;100.00;40070.53;5049880;28;20083;-74
2022/01/31 05:58:27;;;;;;;25.20;3.43;;;;;;;-146.64;100.00;40045.97;5042378;28;20266;-73
2022/01/31 06:00:52;;;;;;;24.80;4.10;;;;;;;-146.64;100.00;40029.59;5073392;28;20277;-74
2022/01/31 06:03:18;;;;;;;15.38;3.53;;;;;;;-146.64;100.00;40031.66;5054722;28;20046;-74
2022/01/31 06:05:43;;;;;;;32.17;4.70;;;;;;;-146.64;100.00;39964.09;5069041;28;20377;-74
2022/01/31 06:08:08;;;;;;;27.55;3.72;;;;;;;-146.64;100.00;40109.44;5055313;28;20515;-74
2022/01/31 06:10:40;;;;;;;23.02;3.83;;;;;;;-146.64;100.00;40127.84;5056036;28;20028;-74
2022/01/31 06:13:06;;;;;;;20.15;2.97;;;;;;;-146.64;100.00;40107.38;5055307;28;20060;-74
2022/01/31 06:15:31;;;;;;;26.42;3.97;;;;;;;-146.64;100.00;40222.03;5055208;28;20068;-73
2022/01/31 06:17:56;;;;;;;37.85;4.82;;;;;;;-146.64;100.00;40228.16;5038897;28;20123;-73
2022/01/31 06:20:22;;;;;;;22.25;3.20;;;;;;;-146.64;100.00;40242.50;5071698;28;20468;-73
2022/01/31 06:22:49;;;;;;;30.10;3.83;;;;;;;-146.64;100.00;40222.03;5073284;28;20086;-74
2022/01/31 06:25:15;;;;;;;27.83;4.28;;;;;;;-146.64;100.00;40244.53;5035914;28;20025;-74
2022/01/31 06:27:40;;;;;;;25.02;3.75;;;;;;;-146.64;100.00;40232.25;5055600;28;20032;-75
2022/01/31 06:30:06;;;;;;;29.63;5.55;;;;;;;-146.64;100.00;40187.22;5054797;28;20048;-74
2022/01/31 06:32:31;;;;;;;29.13;4.05;;;;;;;-146.64;100.00;40109.44;5053542;28;20498;-74
2022/01/31 06:34:57;;;;;;;31.88;4.88;;;;;;;-146.64;100.00;40226.13;5053324;28;20032;-73
2022/01/31 06:37:22;;;;;;;25.75;4.38;;;;;;;-146.64;100.00;40160.63;5053055;28;20055;-74
2022/01/31 06:39:47;;;;;;;31.45;5.28;;;;;;;-146.64;100.00;40048.03;5054645;28;20028;-74
2022/01/31 06:42:13;;;;;;;25.40;4.65;;;;;;;-146.64;100.00;40107.38;5073451;28;20032;-74
2022/01/31 06:44:39;;;;;;;38.33;5.43;;;;;;;-146.64;100.00;40086.91;5053485;28;20037;-74
2022/01/31 06:47:05;;;;;;;26.98;5.07;;;;;;;-146.64;100.00;40050.06;5052912;28;20027;-73
2022/01/31 06:49:30;;;;;;;36.67;4.63;;;;;;;-146.64;100.00;40060.31;5036674;28;20032;-73
2022/01/31 06:51:55;;;;;;;38.38;5.22;;;;;;;-146.64;100.00;39982.53;5067463;28;20036;-73
2022/01/31 06:54:21;;;;;;;31.65;5.50;;;;;;;-146.64;100.00;40005.03;5069517;28;20020;-73
2022/01/31 06:56:46;;;;;;;41.53;5.32;;;;;;;-146.64;100.00;39992.75;5053229;28;20496;-73
2022/01/31 06:59:11;;;;;;;27.17;3.92;;;;;;;-146.64;100.00;39951.81;5053378;28;20027;-73
2022/01/31 07:01:37;;;;;;;41.75;5.18;;;;;;;-146.64;100.00;39929.31;5050202;28;20423;-73
2022/01/31 07:04:02;;;;;;;33.20;4.40;;;;;;;-146.64;100.00;39853.56;5029559;28;20028;-73
2022/01/31 07:06:27;;;;;;;25.23;4.10;;;;;;;-146.64;100.00;39896.56;5053144;28;20449;-74
2022/01/31 07:08:53;;;;;;;38.58;5.38;;;;;;;-146.64;100.00;39951.81;5048874;28;20067;-73
2022/01/31 07:11:24;;;;;;;31.42;4.45;;;;;;;-146.64;100.00;39869.94;5033443;28;20115;-73
2022/01/31 07:14:00;;;;;;;29.10;4.75;;;;;;;-146.64;100.00;40009.13;5067823;28;20024;-73
2022/01/31 07:16:25;;;;;;;36.47;4.05;;;;;;;-146.64;100.00;40013.22;5066830;28;20024;-73
2022/01/31 07:18:53;;;;;;;29.23;3.78;;;;;;;-146.64;100.00;40005.03;5053272;28;20091;-73
2022/01/31 07:21:18;;;;;;;51.40;5.50;;;;;;;-146.64;100.00;40000.94;5071332;28;20040;-74
2022/01/31 07:24:06;;;;;;;33.63;4.60;;;;;;;-146.64;100.00;40013.22;5052593;28;20032;-74
2022/01/31 07:26:31;;;;;;;41.20;6.15;;;;;;;-146.64;100.00;40023.47;5051531;28;20033;-73
2022/01/31 07:28:57;;;;;;;40.20;4.70;;;;;;;-146.64;100.00;40035.75;5052465;28;20366;-74
2022/01/31 07:31:22;;;;;;;27.17;6.10;;;;;;;-146.64;100.00;40041.88;5050144;28;20472;-73
2022/01/31 07:33:47;;;;;;;32.95;5.97;;;;;;;-146.64;100.00;40086.91;5051785;28;20104;-74
2022/01/31 07:36:13;;;;;;;35.75;5.43;;;;;;;-146.64;100.00;40068.50;5052231;28;20395;-74
2022/01/31 07:38:38;;;;;;;34.58;4.75;;;;;;;-146.64;100.00;40119.66;5051967;28;20548;-74
2022/01/31 07:41:03;;;;;;;33.38;4.70;;;;;;;-146.64;100.00;40066.44;5032474;28;20120;-74
2022/01/31 07:43:31;;;;;;;26.45;4.30;;;;;;;-146.64;100.00;40074.63;5067520;28;20484;-74
2022/01/31 07:45:56;;;;;;;30.40;4.47;;;;;;;-146.64;100.00;40043.94;5051336;28;20066;-74
2022/01/31 07:48:25;;;;;;;28.38;4.88;;;;;;;-146.64;100.00;40013.22;5052105;28;20479;-74
2022/01/31 07:50:51;;;;;;;41.30;4.40;;;;;;;-146.64;100.00;40021.41;5049157;28;20032;-74
2022/01/31 07:53:16;;;;;;;30.42;4.22;;;;;;;-146.64;100.00;40000.94;5045858;28;20032;-74
2022/01/31 07:55:41;;;;;;;39.75;6.25;;;;;;;-146.64;100.00;40005.03;5050054;28;20036;-74
2022/01/31 07:58:07;;;;;;;44.25;5.68;;;;;;;-146.64;100.00;39968.19;5033062;28;20059;-74
2022/01/31 08:00:32;;;;;;;41.72;6.07;;;;;;;-146.64;100.00;39894.50;5048237;28;20388;-74
2022/01/31 08:02:57;;;;;;;36.50;5.30;;;;;;;-146.64;100.00;39910.88;5048061;28;20318;-74
2022/01/31 08:05:23;;;;;;;39.70;5.65;;;;;;;-146.64;100.00;39914.97;5052376;28;20032;-74
2022/01/31 08:07:48;;;;;;;44.10;6.63;;;;;;;-146.64;100.00;39914.97;5028358;28;21627;-73
2022/01/31 08:10:15;;;;;;;27.15;4.78;;;;;;;-146.64;100.00;39884.28;5035719;28;20024;-74
2022/01/31 08:12:42;;;;;;;35.88;5.38;;;;;;;-146.64;100.00;39804.44;5025039;28;20040;-73
2022/01/31 08:15:09;;;;;;;50.80;6.60;;;;;;;-146.64;100.00;39886.31;5046269;28;20399;-73
2022/01/31 08:17:34;;;;;;;31.00;4.05;;;;;;;-146.64;100.00;39900.66;5043735;28;20032;-74
2022/01/31 08:19:59;;;;;;;32.00;4.75;;;;;;;-146.64;100.00;39878.13;5046066;28;20048;-74
2022/01/31 08:22:25;;;;;;;39.45;5.15;;;;;;;-146.64;100.00;39857.66;5029131;28;20024;-74
2022/01/31 08:24:50;;;;;;;37.03;5.53;;;;;;;-146.64;100.00;39788.06;5057127;28;20127;-76
2022/01/31 08:27:15;;;;;;;38.80;6.35;;;;;;;-146.64;100.00;39869.94;5050257;28;20029;-74
2022/01/31 08:29:41;;;;;;;34.42;5.97;;;;;;;-146.64;100.00;39894.50;5033893;28;20040;-73
2022/01/31 08:32:22;;;;;;;41.53;6.53;;;;;;;-146.64;100.00;40029.59;5068623;28;20028;-74
2022/01/31 08:37:33;;;;;;;32.78;5.38;;;;;;;-146.64;100.00;40181.09;5054822;28;20489;-74
2022/01/31 08:39:58;;;;;;;27.58;5.03;;;;;;;-146.64;100.00;40222.03;5050778;28;20020;-73
2022/01/31 08:42:23;;;;;;;42.78;5.68;;;;;;;-146.64;100.00;40164.72;5051715;28;20043;-74
2022/01/31 08:44:49;;;;;;;32.72;4.63;;;;;;;-146.64;100.00;40172.91;5030979;28;20041;-73
2022/01/31 08:47:15;;;;;;;54.97;6.90;;;;;;;-146.64;100.00;40156.50;5062941;28;20024;-74
2022/01/31 08:49:40;;;;;;;44.70;6.50;;;;;;;-146.64;100.00;40115.56;5046271;28;20134;-74
2022/01/31 08:52:06;;;;;;;38.90;6.18;;;;;;;-146.64;100.00;40168.81;5058998;28;20100;-74
2022/01/31 08:54:32;;;;;;;39.08;5.35;;;;;;;-146.64;100.00;40134.00;5056739;28;20060;-73
2022/01/31 08:56:57;;;;;;;35.05;4.07;;;;;;;-146.64;100.00;40146.28;5050971;28;20041;-74
2022/01/31 08:59:25;;;;;;;45.47;6.95;;;;;;;-146.64;100.00;40152.41;5050690;28;20542;-75
2022/01/31 09:02:03;;;;;;;39.13;6.07;;;;;;;-146.64;100.00;40107.38;5069206;28;20020;-74
2022/01/31 09:04:41;;;;;;;35.53;5.13;;;;;;;-146.64;100.00;40070.53;5056478;28;20028;-74
2022/01/31 09:07:06;;;;;;;;;;;;;;;-146.64;100.00;40064.41;5069831;28;20032;-74
2022/01/31 09:09:31;;;;;;;45.60;5.90;;;;;;;-146.64;100.00;40007.09;5070102;28;19932;-73
2022/01/31 09:11:58;;;;;;;34.47;4.97;;;;;;;-146.64;100.00;39970.25;5073832;28;20043;-74
2022/01/31 09:14:24;;;;;;;40.67;5.97;;;;;;;-146.64;100.00;40000.94;5054449;28;20019;-75
2022/01/31 09:16:50;;;;;;;38.85;6.28;;;;;;;-146.64;100.00;39931.34;5042865;28;20040;-75
2022/01/31 09:19:15;;;;;;;47.13;6.38;;;;;;;-146.64;100.00;39955.91;5038856;28;20025;-75
2022/01/31 09:21:40;;;;;;;45.78;6.25;;;;;;;-146.64;100.00;39992.75;5072522;28;20032;-76
2022/01/31 09:24:06;;;;;;;34.40;6.82;;;;;;;-146.64;100.00;40009.13;5071262;28;20033;-75
2022/01/31 09:26:31;;;;;;;38.92;6.45;;;;;;;-146.64;100.00;39976.38;5038754;28;20039;-75
2022/01/31 09:28:57;;;;;;;43.20;6.75;;;;;;;-146.64;100.00;39943.63;5037541;28;20025;-75
2022/01/31 09:31:22;;;;;;;44.53;7.53;;;;;;;-146.64;100.00;39892.47;5050771;28;20045;-74
2022/01/31 09:33:49;;;;;;;44.95;6.55;;;;;;;-146.64;100.00;39878.13;5055488;28;20037;-75
2022/01/31 09:36:14;;;;;;;41.58;6.43;;;;;;;-146.64;100.00;39755.31;5053397;28;20054;-75
2022/01/31 09:38:41;;;;;;;51.42;6.82;;;;;;;-146.64;100.00;39779.88;5071739;28;20068;-74
2022/01/31 09:41:08;;;;;;;48.75;6.50;;;;;;;-146.64;100.00;39747.13;5029810;28;20629;-74
2022/01/31 09:48:56;;;;;;;38.13;7.68;;;;;;;-146.64;100.00;39628.41;5046766;28;20040;-75
2022/01/31 09:51:23;;;;;;;57.75;6.35;;;;;;;-146.64;100.00;39628.41;5031627;28;20396;-74
2022/01/31 09:53:52;;;;;;;58.92;8.27;;;;;;;-146.64;100.00;39657.06;5049801;28;20031;-75
2022/01/31 09:56:24;;;;;;;57.17;8.30;;;;;;;-146.64;100.00;39583.38;5066825;28;20422;-74
2022/01/31 09:58:50;;;;;;;48.00;7.53;;;;;;;-146.64;100.00;39612.03;5053579;28;20021;-74
2022/01/31 10:01:20;;;;;;;46.63;5.78;;;;;;;-146.64;100.00;39632.50;5068975;28;20016;-74
2022/01/31 10:03:46;;;;;;;46.65;8.52;;;;;;;-146.64;100.00;39599.75;5070605;28;20552;-74
2022/01/31 10:06:22;;;;;;;43.70;7.13;;;;;;;-146.64;100.00;39595.66;5071072;28;20379;-74
2022/01/31 10:08:48;;;;;;;47.95;8.60;;;;;;;-146.64;100.00;39581.34;5067453;28;20372;-75
2022/01/31 10:11:27;;;;;;;55.53;7.97;;;;;;;-146.64;100.00;39640.69;5038523;28;20028;-74
2022/01/31 10:16:44;;;;;;;46.45;6.75;;;;;;;-146.64;100.00;39661.16;5047202;28;20411;-75
2022/01/31 10:19:10;;;;;;;52.08;7.22;;;;;;;-146.64;100.00;39661.16;5051487;28;20032;-75
2022/01/31 10:22:06;;;;;;;55.57;6.13;;;;;;;-146.64;100.00;39657.06;5052920;28;20028;-74
2022/01/31 10:24:33;;;;;;;46.42;6.35;;;;;;;-146.64;100.00;39669.34;5050231;28;20277;-75
2022/01/31 10:27:07;;;;;;;39.45;5.85;;;;;;;-146.64;100.00;39657.06;5051622;28;20392;-74
2022/01/31 10:29:32;;;;;;;57.30;8.65;;;;;;;-146.64;100.00;39657.06;5067535;28;20476;-75
2022/01/31 10:32:23;;;;;;;58.22;6.60;;;;;;;-146.64;100.00;39630.47;5063172;28;20024;-74
2022/01/31 10:34:52;;;;;;;41.08;6.43;;;;;;;-146.64;100.00;39593.63;5037636;28;20032;-74
2022/01/31 10:37:20;;;;;;;70.35;8.65;;;;;;;-146.64;100.00;39567.00;5041014;28;20039;-74
2022/01/31 10:45:43;;;;;;;54.58;7.43;;;;;;;-146.64;100.00;39603.84;5059643;28;20523;-74
2022/01/31 10:54:11;;;;;;;47.70;7.57;;;;;;;-146.64;100.00;39509.72;5067089;28;20056;-75
2022/01/31 10:56:47;;;;;;;70.03;7.97;;;;;;;-146.64;100.00;39556.78;5049321;28;20068;-75
2022/01/31 10:59:37;;;;;;;47.85;6.75;;;;;;;-146.64;100.00;39542.44;5026740;28;20024;-74
2022/01/31 11:02:11;;;;;;;50.35;7.18;;;;;;;-146.64;100.00;39522.00;5049867;28;20032;-74
2022/01/31 11:04:38;;;;;;;52.58;7.05;;;;;;;-146.64;100.00;39544.50;5058781;28;20143;-74
2022/01/31 11:07:06;;;;;;;;;;;;;;;-146.64;100.00;39536.31;5069352;28;20032;-74
2022/01/31 11:09:32;;;;;;;53.97;7.68;;;;;;;-146.64;100.00;39530.16;5052256;28;20402;-75
2022/01/31 11:11:58;;;;;;;58.03;7.47;;;;;;;-146.64;100.00;39540.41;5070021;28;20063;-74
2022/01/31 11:14:24;;;;;;;46.58;6.90;;;;;;;-146.64;100.00;39522.00;5052856;28;20039;-74
2022/01/31 11:16:49;;;;;;;43.55;7.32;;;;;;;-146.64;100.00;39530.16;5071056;28;20516;-75
2022/01/31 11:19:21;;;;;;;46.83;7.95;;;;;;;-146.64;100.00;39526.09;5071845;28;20082;-74
2022/01/31 11:21:48;;;;;;;66.55;9.43;;;;;;;-146.64;100.00;39538.34;5047850;28;20507;-75
2022/01/31 11:24:21;;;;;;;59.47;8.45;;;;;;;-146.64;100.00;39431.94;5045987;28;20026;-75
2022/01/31 11:26:49;;;;;;;52.15;7.97;;;;;;;-146.64;100.00;39532.22;5060171;28;20024;-75
2022/01/31 11:29:15;;;;;;;42.70;6.93;;;;;;;-146.64;100.00;39530.16;5061786;28;20028;-74